sensor_id;sensor_type;location;lat;lon;timestamp;P1;durP1;ratioP1;P2;durP2;ratioP2
78668;SDS011;67984;45.118;20.724;2023-04-05T00:01:03;7.45;;;4.30;;
78668;SDS011;67984;45.118;20.724;2023-04-05T00:11:06;10.98;;;3.65;;
78668;SDS011;67984;45.118;20.724;2023-04-05T00:21:07;7.43;;;4.90;;
78668;SDS011;67984;45.118;20.724;2023-04-05T00:31:08;16.13;;;3.63;;
78668;SDS011;67984;45.118;20.724;2023-04-05T00:41:10;6.55;;;3.20;;
78668;SDS011;67984;45.118;20.724;2023-04-05T00:51:11;4.15;;;3.00;;
78668;SDS011;67984;45.118;20.724;2023-04-05T01:01:15;6.07;;;3.33;;
78668;SDS011;67984;45.118;20.724;2023-04-05T01:11:21;5.30;;;2.53;;
78668;SDS011;67984;45.118;20.724;2023-04-05T01:32:24;6.25;;;3.60;;
78668;SDS011;67984;45.118;20.724;2023-04-05T01:42:15;5.70;;;2.55;;
78668;SDS011;67984;45.118;20.724;2023-04-05T01:52:22;3.92;;;2.83;;
78668;SDS011;67984;45.118;20.724;2023-04-05T02:02:23;7.13;;;3.93;;
78668;SDS011;67984;45.118;20.724;2023-04-05T02:12:26;5.07;;;2.90;;
78668;SDS011;67984;45.118;20.724;2023-04-05T02:22:46;6.68;;;3.65;;
78668;SDS011;67984;45.118;20.724;2023-04-05T02:32:47;5.43;;;3.63;;
78668;SDS011;67984;45.118;20.724;2023-04-05T02:42:47;7.80;;;4.17;;
78668;SDS011;67984;45.118;20.724;2023-04-05T02:52:48;4.33;;;3.57;;
78668;SDS011;67984;45.118;20.724;2023-04-05T03:02:52;7.38;;;3.83;;
78668;SDS011;67984;45.118;20.724;2023-04-05T03:12:55;5.82;;;3.40;;
78668;SDS011;67984;45.118;20.724;2023-04-05T03:22:59;5.07;;;3.40;;
78668;SDS011;67984;45.118;20.724;2023-04-05T03:33:04;10.48;;;4.00;;
78668;SDS011;67984;45.118;20.724;2023-04-05T03:43:16;5.60;;;3.50;;
78668;SDS011;67984;45.118;20.724;2023-04-05T03:53:16;10.00;;;3.70;;
78668;SDS011;67984;45.118;20.724;2023-04-05T04:03:20;7.65;;;4.07;;
78668;SDS011;67984;45.118;20.724;2023-04-05T04:13:24;7.78;;;4.15;;
78668;SDS011;67984;45.118;20.724;2023-04-05T04:23:44;12.63;;;5.05;;
78668;SDS011;67984;45.118;20.724;2023-04-05T04:34:11;5.10;;;3.97;;
78668;SDS011;67984;45.118;20.724;2023-04-05T04:44:23;13.40;;;5.18;;
78668;SDS011;67984;45.118;20.724;2023-04-05T04:54:34;11.27;;;6.18;;
78668;SDS011;67984;45.118;20.724;2023-04-05T05:04:35;15.98;;;7.57;;
78668;SDS011;67984;45.118;20.724;2023-04-05T05:14:36;13.43;;;4.82;;
78668;SDS011;67984;45.118;20.724;2023-04-05T05:24:37;12.75;;;6.75;;
78668;SDS011;67984;45.118;20.724;2023-04-05T05:34:39;14.73;;;8.00;;
78668;SDS011;67984;45.118;20.724;2023-04-05T05:44:40;8.68;;;5.05;;
78668;SDS011;67984;45.118;20.724;2023-04-05T05:54:41;14.87;;;5.77;;
78668;SDS011;67984;45.118;20.724;2023-04-05T06:04:42;11.07;;;5.63;;
78668;SDS011;67984;45.118;20.724;2023-04-05T06:14:43;53.53;;;20.00;;
78668;SDS011;67984;45.118;20.724;2023-04-05T06:24:43;61.93;;;20.70;;
78668;SDS011;67984;45.118;20.724;2023-04-05T06:34:44;54.45;;;14.43;;
78668;SDS011;67984;45.118;20.724;2023-04-05T06:44:49;16.02;;;7.95;;
78668;SDS011;67984;45.118;20.724;2023-04-05T06:54:50;21.93;;;7.73;;
78668;SDS011;67984;45.118;20.724;2023-04-05T07:04:51;13.20;;;7.93;;
78668;SDS011;67984;45.118;20.724;2023-04-05T07:14:52;22.05;;;8.40;;
78668;SDS011;67984;45.118;20.724;2023-04-05T07:24:53;15.77;;;6.43;;
78668;SDS011;67984;45.118;20.724;2023-04-05T07:34:54;21.73;;;5.63;;
78668;SDS011;67984;45.118;20.724;2023-04-05T07:44:56;14.98;;;7.30;;
78668;SDS011;67984;45.118;20.724;2023-04-05T07:54:57;19.95;;;9.32;;
78668;SDS011;67984;45.118;20.724;2023-04-05T08:04:57;14.17;;;6.80;;
78668;SDS011;67984;45.118;20.724;2023-04-05T08:14:59;18.30;;;7.88;;
78668;SDS011;67984;45.118;20.724;2023-04-05T08:25:02;31.52;;;11.00;;
78668;SDS011;67984;45.118;20.724;2023-04-05T08:35:04;96.07;;;25.40;;
78668;SDS011;67984;45.118;20.724;2023-04-05T08:45:07;31.67;;;12.35;;
78668;SDS011;67984;45.118;20.724;2023-04-05T08:55:10;16.00;;;8.93;;
78668;SDS011;67984;45.118;20.724;2023-04-05T09:05:12;11.73;;;7.15;;
78668;SDS011;67984;45.118;20.724;2023-04-05T09:35:32;23.92;;;11.57;;
78668;SDS011;67984;45.118;20.724;2023-04-05T09:45:41;49.85;;;18.50;;
78668;SDS011;67984;45.118;20.724;2023-04-05T09:55:43;24.33;;;10.07;;
78668;SDS011;67984;45.118;20.724;2023-04-05T10:05:44;22.02;;;9.73;;
78668;SDS011;67984;45.118;20.724;2023-04-05T10:15:48;24.73;;;11.93;;
78668;SDS011;67984;45.118;20.724;2023-04-05T10:25:56;22.45;;;9.00;;
78668;SDS011;67984;45.118;20.724;2023-04-05T10:46:20;21.38;;;11.02;;
78668;SDS011;67984;45.118;20.724;2023-04-05T10:56:22;16.88;;;8.43;;
78668;SDS011;67984;45.118;20.724;2023-04-05T11:16:39;35.92;;;14.27;;
78668;SDS011;67984;45.118;20.724;2023-04-05T11:36:48;34.22;;;16.15;;
78668;SDS011;67984;45.118;20.724;2023-04-05T11:46:50;16.75;;;9.57;;
78668;SDS011;67984;45.118;20.724;2023-04-05T11:56:54;14.15;;;6.35;;
78668;SDS011;67984;45.118;20.724;2023-04-05T12:07:11;13.67;;;7.67;;
78668;SDS011;67984;45.118;20.724;2023-04-05T12:17:17;10.85;;;5.60;;
78668;SDS011;67984;45.118;20.724;2023-04-05T12:27:18;23.77;;;9.50;;
78668;SDS011;67984;45.118;20.724;2023-04-05T12:37:18;22.80;;;7.60;;
78668;SDS011;67984;45.118;20.724;2023-04-05T12:47:20;26.85;;;9.82;;
78668;SDS011;67984;45.118;20.724;2023-04-05T12:57:30;30.43;;;10.57;;
78668;SDS011;67984;45.118;20.724;2023-04-05T13:07:31;41.42;;;12.93;;
78668;SDS011;67984;45.118;20.724;2023-04-05T13:17:32;34.77;;;13.23;;
78668;SDS011;67984;45.118;20.724;2023-04-05T13:27:34;20.38;;;8.20;;
78668;SDS011;67984;45.118;20.724;2023-04-05T13:47:36;19.83;;;9.05;;
78668;SDS011;67984;45.118;20.724;2023-04-05T13:57:39;26.35;;;12.13;;
78668;SDS011;67984;45.118;20.724;2023-04-05T14:07:40;25.90;;;10.43;;
78668;SDS011;67984;45.118;20.724;2023-04-05T14:17:41;45.57;;;15.80;;
78668;SDS011;67984;45.118;20.724;2023-04-05T14:27:42;32.70;;;12.00;;
78668;SDS011;67984;45.118;20.724;2023-04-05T14:37:43;23.08;;;11.07;;
78668;SDS011;67984;45.118;20.724;2023-04-05T14:47:44;32.95;;;13.50;;
78668;SDS011;67984;45.118;20.724;2023-04-05T14:57:45;27.57;;;12.23;;
78668;SDS011;67984;45.118;20.724;2023-04-05T15:07:46;25.48;;;12.25;;
78668;SDS011;67984;45.118;20.724;2023-04-05T15:17:47;18.13;;;10.88;;
78668;SDS011;67984;45.118;20.724;2023-04-05T15:27:48;22.60;;;10.40;;
78668;SDS011;67984;45.118;20.724;2023-04-05T15:47:49;24.37;;;9.33;;
78668;SDS011;67984;45.118;20.724;2023-04-05T15:57:50;20.77;;;8.33;;
78668;SDS011;67984;45.118;20.724;2023-04-05T16:07:52;30.05;;;13.80;;
78668;SDS011;67984;45.118;20.724;2023-04-05T16:27:54;26.33;;;12.63;;
78668;SDS011;67984;45.118;20.724;2023-04-05T16:37:55;52.33;;;18.00;;
78668;SDS011;67984;45.118;20.724;2023-04-05T16:47:59;33.03;;;12.15;;
78668;SDS011;67984;45.118;20.724;2023-04-05T16:58:01;32.88;;;12.98;;
78668;SDS011;67984;45.118;20.724;2023-04-05T17:08:03;29.40;;;12.10;;
78668;SDS011;67984;45.118;20.724;2023-04-05T17:18:04;103.25;;;32.20;;
78668;SDS011;67984;45.118;20.724;2023-04-05T17:28:06;124.38;;;45.92;;
78668;SDS011;67984;45.118;20.724;2023-04-05T17:38:08;57.92;;;25.92;;
78668;SDS011;67984;45.118;20.724;2023-04-05T17:48:11;62.85;;;24.23;;
78668;SDS011;67984;45.118;20.724;2023-04-05T17:58:11;66.33;;;28.43;;
78668;SDS011;67984;45.118;20.724;2023-04-05T18:08:12;55.90;;;23.83;;
78668;SDS011;67984;45.118;20.724;2023-04-05T18:18:13;183.80;;;64.93;;
78668;SDS011;67984;45.118;20.724;2023-04-05T18:28:15;211.75;;;78.68;;
78668;SDS011;67984;45.118;20.724;2023-04-05T18:38:16;155.45;;;63.08;;
78668;SDS011;67984;45.118;20.724;2023-04-05T18:48:17;109.30;;;42.60;;
78668;SDS011;67984;45.118;20.724;2023-04-05T18:58:20;29.27;;;12.27;;
78668;SDS011;67984;45.118;20.724;2023-04-05T19:08:21;34.00;;;15.45;;
78668;SDS011;67984;45.118;20.724;2023-04-05T19:18:22;37.93;;;16.47;;
78668;SDS011;67984;45.118;20.724;2023-04-05T19:28:26;51.13;;;20.65;;
78668;SDS011;67984;45.118;20.724;2023-04-05T19:38:28;50.38;;;20.15;;
78668;SDS011;67984;45.118;20.724;2023-04-05T19:48:46;92.43;;;39.23;;
78668;SDS011;67984;45.118;20.724;2023-04-05T19:58:48;39.88;;;17.20;;
78668;SDS011;67984;45.118;20.724;2023-04-05T20:08:58;23.80;;;11.10;;
78668;SDS011;67984;45.118;20.724;2023-04-05T20:19:05;24.85;;;13.25;;
78668;SDS011;67984;45.118;20.724;2023-04-05T20:29:07;40.75;;;18.70;;
78668;SDS011;67984;45.118;20.724;2023-04-05T20:39:09;48.05;;;24.65;;
78668;SDS011;67984;45.118;20.724;2023-04-05T20:49:09;22.40;;;10.17;;
78668;SDS011;67984;45.118;20.724;2023-04-05T20:59:11;26.67;;;11.02;;
78668;SDS011;67984;45.118;20.724;2023-04-05T21:09:22;28.50;;;13.02;;
78668;SDS011;67984;45.118;20.724;2023-04-05T21:29:24;53.47;;;19.25;;
78668;SDS011;67984;45.118;20.724;2023-04-05T21:39:25;36.88;;;17.13;;
78668;SDS011;67984;45.118;20.724;2023-04-05T21:49:26;36.20;;;16.70;;
78668;SDS011;67984;45.118;20.724;2023-04-05T21:59:27;43.75;;;17.95;;
78668;SDS011;67984;45.118;20.724;2023-04-05T22:09:28;42.27;;;17.37;;
78668;SDS011;67984;45.118;20.724;2023-04-05T22:19:29;32.85;;;16.08;;
78668;SDS011;67984;45.118;20.724;2023-04-05T22:29:30;36.17;;;14.57;;
78668;SDS011;67984;45.118;20.724;2023-04-05T22:39:31;26.08;;;11.02;;
78668;SDS011;67984;45.118;20.724;2023-04-05T22:49:32;30.57;;;13.63;;
78668;SDS011;67984;45.118;20.724;2023-04-05T22:59:33;29.95;;;13.13;;
78668;SDS011;67984;45.118;20.724;2023-04-05T23:09:33;26.53;;;13.23;;
78668;SDS011;67984;45.118;20.724;2023-04-05T23:19:35;73.03;;;31.35;;
78668;SDS011;67984;45.118;20.724;2023-04-05T23:29:35;23.58;;;10.30;;
78668;SDS011;67984;45.118;20.724;2023-04-05T23:39:36;16.93;;;8.13;;
78668;SDS011;67984;45.118;20.724;2023-04-05T23:49:37;18.30;;;10.53;;
78668;SDS011;67984;45.118;20.724;2023-04-05T23:59:37;19.83;;;11.93;;
